createdAt,value
2022-09-28T00:02:22.043Z,11.22
2022-09-28T00:04:52.274Z,11.27
2022-09-28T00:07:25.039Z,11.27
2022-09-28T00:09:55.254Z,11.27
2022-09-28T00:12:28.361Z,11.31
2022-09-28T00:14:58.595Z,11.32
2022-09-28T00:17:29.046Z,11.35
2022-09-28T00:19:59.661Z,11.40
2022-09-28T00:22:32.401Z,11.40
2022-09-28T00:25:02.799Z,11.40
2022-09-28T00:27:32.897Z,11.43
2022-09-28T00:30:03.184Z,11.50
2022-09-28T00:32:34.813Z,11.51
2022-09-28T00:35:04.962Z,11.55
2022-09-28T00:37:37.680Z,11.51
2022-09-28T00:40:09.032Z,11.50
2022-09-28T00:42:43.069Z,11.51
2022-09-28T00:45:13.189Z,11.50
2022-09-28T00:47:54.226Z,11.48
2022-09-28T00:50:29.748Z,11.45
2022-09-28T00:53:08.023Z,11.42
2022-09-28T00:55:43.089Z,11.40
2022-09-28T00:58:19.686Z,11.35
2022-09-28T01:00:50.214Z,11.27
2022-09-28T01:03:20.805Z,11.30
2022-09-28T01:05:54.538Z,11.29
2022-09-28T01:08:29.399Z,11.34
2022-09-28T01:11:00.590Z,11.41
2022-09-28T01:13:34.095Z,11.42
2022-09-28T01:16:14.476Z,11.56
2022-09-28T01:18:53.882Z,11.50
2022-09-28T01:21:25.510Z,11.47
2022-09-28T01:24:34.028Z,11.48
2022-09-28T01:27:16.183Z,11.40
2022-09-28T01:29:55.546Z,11.40
2022-09-28T01:32:39.659Z,11.35
2022-09-28T01:35:12.988Z,11.30
2022-09-28T01:37:52.088Z,11.29
2022-09-28T01:40:25.897Z,11.27
2022-09-28T01:43:05.231Z,11.17
2022-09-28T01:45:44.133Z,11.15
2022-09-28T01:48:20.549Z,11.20
2022-09-28T01:50:55.442Z,11.10
2022-09-28T01:53:33.306Z,11.07
2022-09-28T01:56:08.202Z,11.04
2022-09-28T01:58:47.103Z,11.07
2022-09-28T02:01:26.338Z,11.07
2022-09-28T02:04:03.513Z,11.10
2022-09-28T02:06:40.683Z,11.12
2022-09-28T02:09:16.481Z,11.13
2022-09-28T02:11:52.061Z,11.14
2022-09-28T02:14:27.817Z,11.10
2022-09-28T02:17:02.212Z,11.12
2022-09-28T02:19:34.576Z,11.12
2022-09-28T02:22:14.803Z,11.10
2022-09-28T02:24:52.920Z,11.11
2022-09-28T02:27:32.692Z,11.14
2022-09-28T02:30:06.804Z,11.16
2022-09-28T02:32:42.760Z,11.14
2022-09-28T02:35:16.048Z,11.25
2022-09-28T02:37:47.445Z,11.26
2022-09-28T02:40:19.496Z,11.30
2022-09-28T02:42:59.622Z,11.26
2022-09-28T02:45:43.888Z,11.28
2022-09-28T02:48:42.781Z,11.25
2022-09-28T02:51:24.078Z,11.25
2022-09-28T02:54:17.998Z,11.29
2022-09-28T02:57:01.944Z,11.28
2022-09-28T02:59:47.807Z,11.31
2022-09-28T03:02:29.211Z,11.30
2022-09-28T03:05:15.991Z,11.21
2022-09-28T03:07:52.979Z,11.19
2022-09-28T03:10:28.585Z,11.21
2022-09-28T03:12:59.515Z,11.17
2022-09-28T03:15:31.661Z,11.15
2022-09-28T03:18:04.908Z,11.14
2022-09-28T03:20:36.378Z,11.08
2022-09-28T03:23:23.832Z,11.15
2022-09-28T03:25:56.231Z,11.08
2022-09-28T03:28:26.681Z,11.08
2022-09-28T03:30:57.159Z,11.01
2022-09-28T03:33:32.633Z,11.07
2022-09-28T03:36:02.884Z,11.07
2022-09-28T03:38:33.015Z,11.09
2022-09-28T03:41:04.146Z,11.10
2022-09-28T03:43:34.676Z,11.02
2022-09-28T03:46:05.336Z,11.09
2022-09-28T03:48:39.287Z,11.06
2022-09-28T03:51:14.324Z,11.03
2022-09-28T03:53:44.523Z,11.08
2022-09-28T03:56:17.587Z,11.08
2022-09-28T03:58:47.838Z,11.01
2022-09-28T04:01:18.940Z,11.08
2022-09-28T04:03:57.220Z,11.04
2022-09-28T04:06:29.075Z,11.01
2022-09-28T04:08:59.303Z,10.94
2022-09-28T04:11:38.475Z,10.99
2022-09-28T04:14:17.883Z,11.00
2022-09-28T04:16:48.392Z,11.00
2022-09-28T04:19:21.571Z,10.96
2022-09-28T04:21:54.616Z,10.96
2022-09-28T04:24:24.859Z,10.98
2022-09-28T04:27:15.053Z,11.01
2022-09-28T04:29:44.311Z,11.01
2022-09-28T04:32:14.806Z,10.98
2022-09-28T04:34:50.595Z,10.96
2022-09-28T04:37:20.700Z,10.90
2022-09-28T04:39:50.972Z,10.89
2022-09-28T04:42:21.154Z,10.88
2022-09-28T04:44:51.358Z,10.81
2022-09-28T04:47:21.802Z,10.83
2022-09-28T04:49:54.583Z,10.80
2022-09-28T04:52:24.738Z,10.73
2022-09-28T04:54:55.064Z,10.80
2022-09-28T04:57:25.240Z,10.84
2022-09-28T04:59:55.504Z,10.82
2022-09-28T05:02:25.712Z,10.78
2022-09-28T05:04:59.084Z,10.79
2022-09-28T05:07:29.811Z,10.74
2022-09-28T05:10:00.755Z,10.73
2022-09-28T05:12:30.893Z,10.67
2022-09-28T05:15:04.029Z,10.73
2022-09-28T05:17:36.480Z,10.75
2022-09-28T05:20:14.733Z,10.80
2022-09-28T05:22:44.842Z,10.83
2022-09-28T05:25:15.069Z,10.79
2022-09-28T05:27:45.448Z,10.71
2022-09-28T05:30:16.097Z,10.69
2022-09-28T05:32:47.027Z,10.65
2022-09-28T05:35:20.106Z,10.62
2022-09-28T05:37:50.453Z,10.62
2022-09-28T05:40:20.831Z,10.63
2022-09-28T05:42:51.215Z,10.71
2022-09-28T05:45:21.401Z,10.67
2022-09-28T05:47:51.480Z,10.60
2022-09-28T05:50:24.779Z,10.62
2022-09-28T05:53:02.868Z,10.71
2022-09-28T05:55:33.777Z,10.72
2022-09-28T05:58:05.426Z,10.74
2022-09-28T06:00:36.807Z,10.85
2022-09-28T06:03:09.481Z,11.06
2022-09-28T06:05:43.051Z,11.17
2022-09-28T06:08:13.668Z,11.46
2022-09-28T06:10:43.817Z,11.83
2022-09-28T06:13:14.173Z,12.35
2022-09-28T06:15:46.515Z,12.89
2022-09-28T06:18:17.752Z,13.32
2022-09-28T06:20:50.553Z,13.90
2022-09-28T06:23:20.929Z,14.28
2022-09-28T06:25:52.186Z,14.60
2022-09-28T06:28:22.414Z,15.05
2022-09-28T06:30:53.438Z,15.50
2022-09-28T06:33:25.791Z,15.08
2022-09-28T06:35:58.635Z,15.60
2022-09-28T06:38:29.359Z,16.12
2022-09-28T06:41:00.764Z,16.37
2022-09-28T06:43:34.346Z,16.69
2022-09-28T06:46:05.269Z,16.67
2022-09-28T06:48:36.183Z,16.99
2022-09-28T06:51:09.313Z,17.21
2022-09-28T06:53:39.551Z,17.47
2022-09-28T06:56:11.602Z,17.42
2022-09-28T06:58:42.053Z,17.90
2022-09-28T07:01:12.469Z,17.73
2022-09-28T07:03:43.285Z,17.98
2022-09-28T07:06:16.329Z,17.74
2022-09-28T07:08:53.690Z,18.00
2022-09-28T07:11:29.912Z,17.95
2022-09-28T07:14:00.066Z,18.19
2022-09-28T07:16:55.421Z,18.33
2022-09-28T07:19:20.470Z,18.31
2022-09-28T07:22:03.745Z,18.12
2022-09-28T07:24:35.054Z,18.36
2022-09-28T07:27:05.990Z,18.58
2022-09-28T07:29:36.211Z,18.62
2022-09-28T07:32:06.423Z,18.66
2022-09-28T07:34:43.724Z,18.63
2022-09-28T07:37:18.954Z,18.53
2022-09-28T07:40:01.841Z,18.02
2022-09-28T07:42:34.210Z,18.35
2022-09-28T07:45:04.642Z,18.60
2022-09-28T07:47:35.395Z,18.44
2022-09-28T07:50:06.308Z,18.64
2022-09-28T07:52:39.093Z,18.63
2022-09-28T07:55:10.828Z,18.37
2022-09-28T07:57:40.945Z,18.44
2022-09-28T08:00:12.614Z,18.84
2022-09-28T08:02:42.808Z,19.18
2022-09-28T08:05:13.597Z,19.22
2022-09-28T08:07:48.640Z,19.02
2022-09-28T08:10:19.639Z,18.75
2022-09-28T08:12:49.970Z,18.57
2022-09-28T08:15:20.197Z,18.62
2022-09-28T08:17:51.030Z,18.88
2022-09-28T08:20:33.711Z,19.21
2022-09-28T08:23:09.233Z,18.99
2022-09-28T08:25:39.577Z,19.45
2022-09-28T08:28:10.031Z,19.56
2022-09-28T08:30:40.160Z,19.76
2022-09-28T08:33:10.488Z,19.81
2022-09-28T08:35:41.123Z,19.90
2022-09-28T08:38:14.222Z,20.13
2022-09-28T08:40:53.001Z,19.68
2022-09-28T08:43:48.711Z,19.91
2022-09-28T08:46:27.120Z,20.11
2022-09-28T08:52:03.382Z,20.47
2022-09-28T08:54:51.812Z,20.60
2022-09-28T08:57:25.880Z,20.59
2022-09-28T08:59:58.620Z,20.77
2022-09-28T09:02:33.837Z,20.93
2022-09-28T09:05:11.351Z,20.97
2022-09-28T09:08:08.331Z,20.95
2022-09-28T09:10:53.626Z,20.69
2022-09-28T09:13:44.344Z,20.31
2022-09-28T09:16:25.674Z,19.74
2022-09-28T09:19:05.234Z,19.35
2022-09-28T09:21:43.402Z,19.49
2022-09-28T09:24:28.685Z,19.61
2022-09-28T09:27:09.288Z,19.63
2022-09-28T09:29:54.563Z,19.50
2022-09-28T09:32:46.584Z,19.59
2022-09-28T09:35:31.584Z,19.36
2022-09-28T09:38:16.977Z,18.33
2022-09-28T09:41:01.696Z,18.08
2022-09-28T09:43:56.181Z,18.85
2022-09-28T09:46:33.195Z,19.17
2022-09-28T09:49:08.933Z,19.60
2022-09-28T09:51:45.854Z,19.91
2022-09-28T09:54:23.597Z,19.87
2022-09-28T09:57:00.837Z,19.69
2022-09-28T09:59:39.337Z,19.97
2022-09-28T10:02:22.180Z,19.67
2022-09-28T10:04:55.342Z,19.81
2022-09-28T10:07:29.609Z,19.98
2022-09-28T10:10:03.623Z,20.32
2022-09-28T10:12:33.970Z,20.30
2022-09-28T10:15:10.129Z,20.75
2022-09-28T10:17:40.880Z,20.81
2022-09-28T10:20:15.358Z,20.93
2022-09-28T10:22:46.787Z,21.01
2022-09-28T10:25:18.468Z,21.20
2022-09-28T10:27:52.774Z,20.92
2022-09-28T10:30:28.611Z,21.24
2022-09-28T10:32:59.619Z,21.07
2022-09-28T10:35:32.542Z,21.33
2022-09-28T10:38:04.933Z,21.36
2022-09-28T10:40:43.617Z,21.03
2022-09-28T10:43:24.488Z,20.90
2022-09-28T10:46:09.305Z,20.84
2022-09-28T10:48:52.249Z,20.61
2022-09-28T10:51:22.902Z,20.70
2022-09-28T10:54:02.948Z,20.80
2022-09-28T10:56:40.015Z,21.18
2022-09-28T10:59:26.461Z,20.89
2022-09-28T11:02:03.163Z,20.89
2022-09-28T11:04:39.904Z,20.88
2022-09-28T11:07:20.101Z,20.89
2022-09-28T11:09:52.470Z,20.58
2022-09-28T11:12:25.577Z,20.19
2022-09-28T11:15:01.081Z,20.01
2022-09-28T11:17:38.779Z,19.97
2022-09-28T11:20:35.667Z,20.14
2022-09-28T11:23:21.728Z,20.23
2022-09-28T11:26:01.557Z,20.20
2022-09-28T11:28:35.411Z,20.25
2022-09-28T11:31:07.353Z,20.52
2022-09-28T11:33:43.268Z,20.62
2022-09-28T11:36:26.170Z,20.63
2022-09-28T11:39:09.062Z,20.52
2022-09-28T11:41:51.507Z,20.36
2022-09-28T11:44:39.085Z,20.37
2022-09-28T11:47:36.324Z,20.34
2022-09-28T11:50:22.938Z,20.10
2022-09-28T11:53:02.439Z,20.17
2022-09-28T11:55:38.935Z,20.06
2022-09-28T11:58:16.235Z,20.25
2022-09-28T12:00:52.666Z,20.41
2022-09-28T12:03:33.626Z,20.26
2022-09-28T12:06:10.234Z,19.88
2022-09-28T12:08:46.273Z,20.21
2022-09-28T12:11:21.167Z,19.97
2022-09-28T12:13:57.923Z,19.89
2022-09-28T12:17:01.015Z,19.84
2022-09-28T12:19:29.311Z,19.97
2022-09-28T12:22:08.115Z,20.17
2022-09-28T12:24:43.448Z,19.96
2022-09-28T12:27:20.137Z,19.88
2022-09-28T12:29:56.831Z,19.96
2022-09-28T12:32:35.758Z,20.15
2022-09-28T12:35:13.368Z,20.31
2022-09-28T12:37:59.779Z,20.23
2022-09-28T12:40:40.304Z,20.22
2022-09-28T12:43:36.504Z,20.19
2022-09-28T12:46:33.734Z,20.27
2022-09-28T12:52:31.913Z,20.46
2022-09-28T12:55:33.392Z,19.98
2022-09-28T12:58:16.953Z,20.02
2022-09-28T13:01:00.197Z,19.84
2022-09-28T13:04:05.991Z,19.78
2022-09-28T13:06:55.182Z,19.82
2022-09-28T13:09:28.659Z,19.97
2022-09-28T13:12:22.128Z,20.06
2022-09-28T13:15:17.549Z,20.16
2022-09-28T13:18:01.889Z,20.08
2022-09-28T13:21:02.108Z,19.78
2022-09-28T13:23:37.380Z,19.72
2022-09-28T13:26:17.506Z,19.79
2022-09-28T13:28:54.858Z,19.78
2022-09-28T13:31:34.040Z,19.70
2022-09-28T13:34:13.185Z,19.63
2022-09-28T13:36:47.985Z,19.48
2022-09-28T13:39:40.763Z,19.46
2022-09-28T13:42:12.552Z,19.60
2022-09-28T13:45:09.689Z,19.27
2022-09-28T13:47:58.076Z,19.37
2022-09-28T13:50:36.206Z,19.08
2022-09-28T13:53:21.985Z,18.84
2022-09-28T13:56:02.454Z,18.76
2022-09-28T13:58:38.778Z,18.95
2022-09-28T14:01:16.311Z,18.82
2022-09-28T14:03:57.460Z,18.66
2022-09-28T14:06:29.424Z,18.46
2022-09-28T14:09:33.916Z,18.46
2022-09-28T14:12:05.041Z,18.40
2022-09-28T14:14:50.332Z,18.34
2022-09-28T14:17:57.195Z,18.33
2022-09-28T14:20:30.076Z,18.30
2022-09-28T14:23:22.652Z,18.32
2022-09-28T14:26:09.549Z,18.17
2022-09-28T14:28:54.572Z,18.07
2022-09-28T14:31:30.076Z,18.04
2022-09-28T14:34:11.773Z,18.03
2022-09-28T14:37:02.943Z,18.01
2022-09-28T14:39:48.446Z,18.06
2022-09-28T14:42:22.128Z,18.09
2022-09-28T14:45:23.625Z,18.15
2022-09-28T14:48:16.457Z,18.21
2022-09-28T14:50:50.354Z,18.11
2022-09-28T14:53:23.248Z,17.98
2022-09-28T14:55:57.433Z,17.98
2022-09-28T14:58:32.629Z,17.85
2022-09-28T15:01:06.318Z,17.92
2022-09-28T15:03:41.250Z,17.94
2022-09-28T15:06:19.889Z,18.04
2022-09-28T15:08:50.177Z,17.99
2022-09-28T15:11:24.883Z,17.97
2022-09-28T15:14:10.871Z,18.12
2022-09-28T15:16:41.340Z,18.13
2022-09-28T15:19:26.449Z,18.10
2022-09-28T15:22:02.227Z,18.13
2022-09-28T15:24:34.600Z,18.13
2022-09-28T15:27:06.460Z,18.00
2022-09-28T15:29:36.645Z,17.90
2022-09-28T15:32:06.883Z,17.83
2022-09-28T15:34:51.017Z,17.67
2022-09-28T15:37:26.001Z,17.54
2022-09-28T15:39:57.844Z,17.39
2022-09-28T15:42:28.698Z,17.27
2022-09-28T15:45:06.273Z,17.13
2022-09-28T15:47:40.203Z,17.01
2022-09-28T15:50:24.536Z,16.89
2022-09-28T15:53:01.745Z,16.80
2022-09-28T15:55:34.451Z,16.70
2022-09-28T15:58:10.462Z,16.58
2022-09-28T16:00:41.702Z,16.44
2022-09-28T16:03:25.429Z,16.33
2022-09-28T16:06:09.534Z,16.20
2022-09-28T16:08:49.037Z,16.15
2022-09-28T16:11:24.386Z,16.08
2022-09-28T16:14:01.909Z,16.01
2022-09-28T16:16:35.821Z,15.93
2022-09-28T16:19:06.132Z,15.89
2022-09-28T16:21:47.495Z,15.83
2022-09-28T16:24:30.586Z,15.79
2022-09-28T16:27:03.773Z,15.73
2022-09-28T16:29:40.389Z,15.66
2022-09-28T16:32:38.580Z,15.60
2022-09-28T16:35:21.488Z,15.50
2022-09-28T16:37:59.384Z,15.43
2022-09-28T16:40:33.894Z,15.37
2022-09-28T16:43:07.037Z,15.31
2022-09-28T16:45:38.127Z,15.25
2022-09-28T16:48:08.952Z,15.20
2022-09-28T16:50:40.194Z,15.11
2022-09-28T16:53:28.480Z,15.06
2022-09-28T16:56:04.313Z,15.00
2022-09-28T16:58:39.226Z,14.99
2022-09-28T17:01:11.099Z,14.94
2022-09-28T17:03:42.756Z,14.92
2022-09-28T17:06:15.469Z,14.85
2022-09-28T17:08:46.266Z,14.76
2022-09-28T17:11:24.469Z,14.73
2022-09-28T17:14:00.305Z,14.68
2022-09-28T17:16:57.637Z,14.66
2022-09-28T17:19:28.770Z,14.66
2022-09-28T17:22:01.853Z,14.63
2022-09-28T17:24:34.646Z,14.62
2022-09-28T17:27:07.606Z,14.62
2022-09-28T17:29:40.283Z,14.62
2022-09-28T17:32:19.865Z,14.67
2022-09-28T17:35:00.925Z,14.69
2022-09-28T17:37:40.999Z,14.70
2022-09-28T17:40:21.041Z,14.71
2022-09-28T17:42:56.278Z,14.74
2022-09-28T17:45:28.785Z,14.81
2022-09-28T17:47:59.269Z,14.83
2022-09-28T17:50:32.550Z,14.86
2022-09-28T17:53:06.194Z,14.93
2022-09-28T17:55:37.616Z,15.00
2022-09-28T17:58:19.436Z,15.03
2022-09-28T18:00:52.209Z,15.07
2022-09-28T18:03:23.795Z,15.11
2022-09-28T18:06:04.358Z,15.16
2022-09-28T18:08:34.753Z,15.17
2022-09-28T18:11:05.469Z,15.17
2022-09-28T18:13:38.454Z,15.21
2022-09-28T18:16:09.468Z,15.30
2022-09-28T18:18:40.241Z,15.39
2022-09-28T18:21:12.265Z,15.40
2022-09-28T18:23:42.570Z,15.46
2022-09-28T18:26:19.174Z,15.49
2022-09-28T18:28:52.099Z,15.52
2022-09-28T18:31:22.492Z,15.52
2022-09-28T18:33:53.043Z,15.52
2022-09-28T18:36:23.485Z,15.49
2022-09-28T18:38:55.452Z,15.38
2022-09-28T18:41:25.869Z,15.44
2022-09-28T18:44:00.962Z,15.41
2022-09-28T18:46:36.519Z,15.31
2022-09-28T18:49:07.433Z,15.36
2022-09-28T18:51:37.757Z,15.38
2022-09-28T18:54:10.924Z,15.35
2022-09-28T18:56:41.360Z,15.35
2022-09-28T18:59:15.028Z,15.41
2022-09-28T19:01:45.273Z,15.39
2022-09-28T19:04:15.768Z,15.38
2022-09-28T19:06:50.598Z,15.37
2022-09-28T19:09:26.971Z,15.33
2022-09-28T19:11:57.161Z,15.29
2022-09-28T19:14:32.501Z,15.25
2022-09-28T19:17:02.979Z,15.24
2022-09-28T19:19:33.200Z,15.19
2022-09-28T19:22:03.833Z,15.20
2022-09-28T19:24:33.987Z,15.15
2022-09-28T19:27:06.943Z,15.15
2022-09-28T19:29:39.758Z,15.11
2022-09-28T19:32:12.369Z,15.13
2022-09-28T19:34:42.544Z,15.10
2022-09-28T19:37:12.638Z,15.10
2022-09-28T19:39:42.977Z,15.11
2022-09-28T19:42:13.183Z,15.10
2022-09-28T19:44:46.606Z,15.11
2022-09-28T19:47:21.829Z,15.11
2022-09-28T19:49:52.015Z,15.11
2022-09-28T19:52:22.271Z,15.05
2022-09-28T19:54:57.059Z,15.04
2022-09-28T19:57:31.854Z,15.02
2022-09-28T20:00:05.003Z,15.01
2022-09-28T20:02:36.279Z,15.02
2022-09-28T20:05:06.886Z,15.05
2022-09-28T20:07:40.016Z,14.97
2022-09-28T20:10:12.101Z,14.95
2022-09-28T20:12:42.545Z,14.94
2022-09-28T20:15:17.132Z,14.94
2022-09-28T20:17:47.345Z,14.93
2022-09-28T20:20:18.404Z,14.93
2022-09-28T20:22:48.551Z,14.92
2022-09-28T20:25:18.903Z,14.92
2022-09-28T20:27:51.301Z,14.92
2022-09-28T20:30:24.457Z,14.91
2022-09-28T20:32:54.546Z,14.90
2022-09-28T20:35:32.606Z,14.89
2022-09-28T20:38:08.175Z,14.88
2022-09-28T20:40:40.347Z,14.84
2022-09-28T20:43:10.920Z,14.83
2022-09-28T20:45:44.119Z,14.81
2022-09-28T20:48:14.318Z,14.77
2022-09-28T20:50:45.276Z,14.71
2022-09-28T20:53:15.446Z,14.70
2022-09-28T20:55:45.561Z,14.68
2022-09-28T20:58:15.767Z,14.66
2022-09-28T21:00:48.575Z,14.64
2022-09-28T21:03:20.908Z,14.61
2022-09-28T21:05:53.963Z,14.59
2022-09-28T21:08:25.358Z,14.53
2022-09-28T21:10:55.921Z,14.52
2022-09-28T21:13:26.691Z,14.51
2022-09-28T21:16:04.734Z,14.51
2022-09-28T21:18:35.011Z,14.50
2022-09-28T21:21:08.050Z,14.51
2022-09-28T21:23:38.848Z,14.50
2022-09-28T21:26:11.258Z,14.50
2022-09-28T21:28:42.416Z,14.49
2022-09-28T21:31:15.782Z,14.44
2022-09-28T21:33:46.054Z,14.42
2022-09-28T21:36:16.206Z,14.37
2022-09-28T21:38:46.781Z,14.35
2022-09-28T21:41:16.967Z,14.33
2022-09-28T21:43:48.377Z,14.30
2022-09-28T21:46:21.516Z,14.25
2022-09-28T21:48:55.775Z,14.17
2022-09-28T21:51:25.991Z,14.18
2022-09-28T21:53:56.209Z,14.20
2022-09-28T21:56:26.947Z,14.21
2022-09-28T21:58:57.095Z,14.20
2022-09-28T22:01:30.006Z,14.18
2022-09-28T22:04:00.951Z,14.19
2022-09-28T22:06:31.171Z,14.18
2022-09-28T22:09:01.367Z,14.20
2022-09-28T22:11:31.824Z,14.21
2022-09-28T22:14:03.277Z,14.14
2022-09-28T22:16:36.036Z,14.18
2022-09-28T22:19:06.237Z,14.12
2022-09-28T22:21:37.157Z,14.06
2022-09-28T22:24:09.338Z,14.04
2022-09-28T22:26:40.869Z,14.01
2022-09-28T22:29:12.842Z,13.96
2022-09-28T22:31:45.651Z,13.92
2022-09-28T22:34:15.775Z,13.89
2022-09-28T22:36:45.991Z,13.87
2022-09-28T22:39:16.262Z,13.83
2022-09-28T22:41:46.400Z,13.83
2022-09-28T22:44:16.627Z,13.78
2022-09-28T22:46:49.772Z,13.66
2022-09-28T22:49:20.232Z,13.60
2022-09-28T22:51:50.410Z,13.60
2022-09-28T22:54:21.686Z,13.54
2022-09-28T22:56:51.871Z,13.47
2022-09-28T22:59:22.011Z,13.52
2022-09-28T23:01:54.803Z,13.57
2022-09-28T23:04:24.968Z,13.55
2022-09-28T23:06:55.126Z,13.56
2022-09-28T23:09:25.349Z,13.55
2022-09-28T23:11:55.491Z,13.54
2022-09-28T23:14:25.565Z,13.49
2022-09-28T23:16:58.311Z,13.50
2022-09-28T23:19:28.612Z,13.47
2022-09-28T23:21:59.441Z,13.47
2022-09-28T23:24:29.526Z,13.50
2022-09-28T23:26:59.723Z,13.50
2022-09-28T23:29:30.005Z,13.49
2022-09-28T23:32:02.859Z,13.51
2022-09-28T23:34:32.947Z,13.50
2022-09-28T23:37:03.109Z,13.51
2022-09-28T23:39:33.368Z,13.50
2022-09-28T23:42:04.099Z,13.52
2022-09-28T23:44:34.242Z,13.50
2022-09-28T23:47:07.010Z,13.49
2022-09-28T23:49:37.336Z,13.47
2022-09-28T23:52:07.522Z,13.44
2022-09-28T23:54:37.646Z,13.47
2022-09-28T23:57:07.839Z,13.52
2022-09-28T23:59:37.978Z,13.54
